Time;durP1;ratioP1;P1;durP2;ratioP2;P2;SDS_P1;SDS_P2;PMS_P1;PMS_P2;Temp;Humidity;BMP_temperature;BMP_pressure;BME280_temperature;BME280_humidity;BME280_pressure;Samples;Min_cycle;Max_cycle;Signal;HPM_P1;HPM_P2
2023/06/22 00:01:01;;;;;;;8.23;6.97;;;;;;;24.18;97.22;100171.91;5084604;28;20193;-75
2023/06/22 00:03:26;;;;;;;7.20;6.10;;;;;;;24.14;99.01;100165.13;5088498;28;20643;-75
2023/06/22 00:05:52;;;;;;;6.07;5.57;;;;;;;23.99;100.00;100164.41;5092725;28;20189;-75
2023/06/22 00:08:19;;;;;;;6.93;5.80;;;;;;;23.70;100.00;100169.78;5086776;28;20242;-74
2023/06/22 00:10:46;;;;;;;6.97;6.37;;;;;;;23.56;100.00;100171.56;5086306;28;20279;-73
2023/06/22 00:13:12;;;;;;;7.93;6.13;;;;;;;23.44;100.00;100217.25;5085580;28;20201;-74
2023/06/22 00:15:40;;;;;;;6.30;5.70;;;;;;;23.36;100.00;100270.56;5080619;28;20220;-75
2023/06/22 00:18:07;;;;;;;6.07;5.40;;;;;;;23.33;100.00;100351.72;5092050;28;20185;-75
2023/06/22 00:20:32;;;;;;;5.20;4.80;;;;;;;23.29;100.00;100428.50;5083397;28;20189;-74
2023/06/22 00:23:00;;;;;;;6.00;5.40;;;;;;;23.32;100.00;100456.53;5086239;28;20232;-74
2023/06/22 00:25:25;;;;;;;6.33;5.73;;;;;;;23.32;100.00;100431.88;5082246;28;20220;-74
2023/06/22 00:27:51;;;;;;;6.13;5.23;;;;;;;23.34;100.00;100321.75;5088170;28;20265;-74
2023/06/22 00:30:17;;;;;;;36.23;13.93;;;;;;;21.67;100.00;100192.66;5085387;27;20574;-73
2023/06/22 00:32:43;;;;;;;19.70;11.47;;;;;;;20.74;100.00;100145.88;5075750;28;20732;-73
2023/06/22 00:35:10;;;;;;;21.63;16.40;;;;;;;20.55;100.00;100165.28;5082896;28;20184;-73
2023/06/22 00:37:35;;;;;;;29.40;22.07;;;;;;;20.56;100.00;100171.38;5080161;28;20378;-73
2023/06/22 00:40:01;;;;;;;39.90;28.17;;;;;;;20.59;100.00;100188.78;5087287;28;20280;-73
2023/06/22 00:42:27;;;;;;;43.43;28.00;;;;;;;20.41;100.00;100194.91;5084486;28;20208;-72
2023/06/22 00:44:52;;;;;;;35.83;28.60;;;;;;;20.37;100.00;100200.41;5080544;28;20201;-74
2023/06/22 00:47:18;;;;;;;35.43;29.27;;;;;;;20.26;100.00;100214.09;5080754;28;20743;-73
2023/06/22 00:49:44;;;;;;;36.67;30.10;;;;;;;20.22;100.00;100221.28;5083321;28;20184;-72
2023/06/22 00:52:13;;;;;;;48.87;36.37;;;;;;;20.33;100.00;100219.88;5073851;28;20264;-72
2023/06/22 00:54:43;;;;;;;51.67;36.27;;;;;;;20.14;100.00;100227.84;5091413;28;20174;-73
2023/06/22 00:57:11;;;;;;;42.17;33.17;;;;;;;19.91;100.00;100227.22;5087781;28;20268;-73
2023/06/22 00:59:37;;;;;;;36.50;29.53;;;;;;;19.97;100.00;100226.03;5080557;28;20229;-73
2023/06/22 01:02:03;;;;;;;37.90;32.20;;;;;;;20.00;100.00;100237.28;5081958;28;20209;-73
2023/06/22 01:04:35;;;;;;;44.93;35.93;;;;;;;20.00;100.00;100233.78;5075468;28;20230;-72
2023/06/22 01:07:30;;;;;;;47.97;36.13;;;;;;;20.02;100.00;100227.56;5085566;28;20245;-73
2023/06/22 01:10:07;;;;;;;57.90;40.27;;;;;;;19.95;100.00;100234.03;5077848;28;20311;-72
2023/06/22 01:12:38;;;;;;;68.33;46.87;;;;;;;20.18;100.00;100232.03;5081999;28;20232;-72
2023/06/22 01:15:33;;;;;;;66.30;47.43;;;;;;;19.87;100.00;100231.75;5080740;28;20196;-72
2023/06/22 01:17:59;;;;;;;70.77;48.13;;;;;;;19.83;100.00;100232.78;5088000;28;20294;-72
2023/06/22 01:20:27;;;;;;;65.33;45.77;;;;;;;19.79;100.00;100242.59;5078415;28;20317;-72
2023/06/22 01:23:18;;;;;;;80.13;54.23;;;;;;;19.77;100.00;100235.75;5078026;28;20719;-72
2023/06/22 01:26:02;;;;;;;83.00;54.37;;;;;;;19.49;100.00;100247.56;5086826;28;20232;-72
2023/06/22 01:28:50;;;;;;;82.80;56.70;;;;;;;19.56;100.00;100251.59;5081056;28;20189;-72
2023/06/22 01:31:22;;;;;;;87.03;57.17;;;;;;;19.53;100.00;100249.09;5075513;28;20204;-72
2023/06/22 01:33:51;;;;;;;80.57;53.83;;;;;;;19.50;100.00;100250.09;5082630;28;20182;-72
2023/06/22 01:36:18;;;;;;;84.73;56.43;;;;;;;19.50;100.00;100246.63;5076384;28;20190;-72
2023/06/22 01:38:45;;;;;;;92.83;58.87;;;;;;;19.54;100.00;100242.09;5080902;28;20685;-72
2023/06/22 01:41:11;;;;;;;83.70;57.43;;;;;;;19.53;100.00;100245.63;5080925;28;20180;-72
2023/06/22 01:43:37;;;;;;;84.87;55.60;;;;;;;19.61;100.00;100241.72;5084320;28;20341;-72
2023/06/22 01:46:03;;;;;;;72.93;53.03;;;;;;;19.42;100.00;100233.00;5078920;28;20277;-72
2023/06/22 01:48:30;;;;;;;91.20;59.13;;;;;;;19.43;100.00;100229.47;5078710;28;22386;-71
2023/06/22 01:50:56;;;;;;;86.97;56.80;;;;;;;19.44;100.00;100228.53;5084117;28;20747;-72
2023/06/22 01:53:22;;;;;;;88.13;57.73;;;;;;;19.37;100.00;100227.97;5079848;28;20340;-72
2023/06/22 01:55:48;;;;;;;77.70;52.87;;;;;;;19.33;100.00;100232.53;5073115;28;20276;-72
2023/06/22 01:58:14;;;;;;;89.20;60.07;;;;;;;19.24;100.00;100234.72;5069670;28;20191;-72
2023/06/22 02:00:44;;;;;;;96.07;60.43;;;;;;;19.22;100.00;100224.28;5086528;28;20174;-72
2023/06/22 02:03:15;;;;;;;84.00;56.10;;;;;;;19.21;100.00;100229.63;5081196;28;20216;-72
2023/06/22 02:05:48;;;;;;;89.97;58.07;;;;;;;19.21;100.00;100221.75;5083477;28;20195;-72
2023/06/22 02:08:20;;;;;;;81.20;54.83;;;;;;;19.06;100.00;100204.94;5082158;28;20181;-72
2023/06/22 02:10:48;;;;;;;86.40;55.90;;;;;;;19.06;100.00;100213.66;5082105;28;20226;-72
2023/06/22 02:13:15;;;;;;;86.87;58.80;;;;;;;19.03;100.00;100211.16;5085014;28;20275;-71
2023/06/22 02:15:41;;;;;;;86.47;57.63;;;;;;;19.03;100.00;100219.03;5083134;28;20537;-72
2023/06/22 02:18:07;;;;;;;89.07;58.97;;;;;;;19.10;100.00;100209.13;5083770;28;20195;-72
2023/06/22 02:20:32;;;;;;;88.40;58.67;;;;;;;19.10;100.00;100206.50;5081341;28;20197;-72
2023/06/22 02:22:57;;;;;;;83.73;56.60;;;;;;;19.04;100.00;100211.13;5082442;28;20269;-72
2023/06/22 02:25:24;;;;;;;89.17;58.63;;;;;;;19.11;100.00;100213.44;5081184;28;20192;-71
2023/06/22 02:27:49;;;;;;;85.83;56.73;;;;;;;19.02;100.00;100207.72;5089880;28;20271;-72
2023/06/22 02:30:15;;;;;;;99.03;62.63;;;;;;;19.19;100.00;100211.34;5087119;28;20301;-72
2023/06/22 02:32:42;;;;;;;91.73;60.57;;;;;;;19.05;100.00;100206.72;5075455;28;20235;-72
2023/06/22 02:35:09;;;;;;;99.60;64.10;;;;;;;18.91;100.00;100206.44;5078077;28;20212;-72
2023/06/22 02:37:38;;;;;;;85.23;61.20;;;;;;;18.73;100.00;100211.59;5081766;28;20223;-72
2023/06/22 02:40:07;;;;;;;82.07;57.37;;;;;;;18.87;100.00;100206.59;5079009;28;20586;-72
2023/06/22 02:42:32;;;;;;;96.53;61.40;;;;;;;18.91;100.00;100203.81;5078714;28;20316;-70
2023/06/22 02:44:57;;;;;;;100.07;64.43;;;;;;;18.93;100.00;100194.13;5087838;28;20283;-71
2023/06/22 02:47:23;;;;;;;90.13;62.67;;;;;;;18.84;100.00;100196.22;5083685;28;20303;-73
2023/06/22 02:49:48;;;;;;;103.13;67.20;;;;;;;18.85;100.00;100184.81;5084374;28;21520;-72
2023/06/22 02:52:13;;;;;;;96.17;65.77;;;;;;;19.06;100.00;100179.56;5099715;27;20212;-72
2023/06/22 02:54:39;;;;;;;98.77;66.77;;;;;;;18.95;100.00;100189.69;5082735;28;20275;-71
2023/06/22 02:57:04;;;;;;;116.20;68.83;;;;;;;18.93;100.00;100168.75;5083679;28;20208;-72
2023/06/22 02:59:30;;;;;;;102.17;68.60;;;;;;;18.88;100.00;100163.72;5085858;28;20275;-71
2023/06/22 03:01:55;;;;;;;99.40;67.13;;;;;;;18.76;100.00;100158.16;5081282;28;20207;-71
2023/06/22 03:04:21;;;;;;;106.47;70.40;;;;;;;18.85;100.00;100149.91;5086470;28;20202;-72
2023/06/22 03:06:50;;;;;;;104.93;67.80;;;;;;;18.92;100.00;100153.09;5083455;28;20199;-72
2023/06/22 03:09:16;;;;;;;109.83;69.33;;;;;;;18.85;100.00;100142.88;5085497;28;20195;-72
2023/06/22 03:11:42;;;;;;;104.70;68.63;;;;;;;18.83;100.00;100149.94;5086498;28;20219;-71
2023/06/22 03:14:07;;;;;;;108.03;66.17;;;;;;;18.94;100.00;100152.13;5093035;28;20184;-71
2023/06/22 03:16:33;;;;;;;98.03;65.57;;;;;;;18.86;100.00;100149.81;5085439;28;20196;-71
2023/06/22 03:18:59;;;;;;;108.57;68.13;;;;;;;18.91;100.00;100156.63;5083242;28;20230;-72
2023/06/22 03:21:27;;;;;;;101.30;65.37;;;;;;;18.91;100.00;100159.25;5081794;28;20219;-72
2023/06/22 03:23:53;;;;;;;96.60;64.77;;;;;;;18.90;100.00;100147.94;5083098;28;20290;-72
2023/06/22 03:26:18;;;;;;;100.57;63.60;;;;;;;18.89;100.00;100144.44;5081009;28;20286;-72
2023/06/22 03:28:43;;;;;;;89.67;60.40;;;;;;;18.90;100.00;100155.78;5076742;28;20217;-72
2023/06/22 03:31:09;;;;;;;88.23;59.87;;;;;;;18.89;100.00;100143.59;5082679;28;20285;-72
2023/06/22 03:33:34;;;;;;;97.13;64.33;;;;;;;18.93;100.00;100145.13;5085353;28;20615;-72
2023/06/22 03:35:59;;;;;;;97.87;63.20;;;;;;;18.91;100.00;100139.13;5082078;28;20534;-72
2023/06/22 03:38:25;;;;;;;82.00;57.23;;;;;;;18.84;100.00;100146.41;5081503;28;20181;-72
2023/06/22 03:40:50;;;;;;;106.23;66.20;;;;;;;18.87;100.00;100146.28;5083927;28;20232;-72
2023/06/22 03:43:15;;;;;;;91.50;59.73;;;;;;;18.89;100.00;100138.34;5083028;28;20306;-73
2023/06/22 03:45:41;;;;;;;97.17;60.23;;;;;;;18.85;100.00;100134.16;5081986;28;20195;-73
2023/06/22 03:48:06;;;;;;;98.77;61.57;;;;;;;18.84;100.00;100121.97;5074452;28;20198;-72
2023/06/22 03:50:31;;;;;;;105.40;65.60;;;;;;;18.89;100.00;100127.88;5085002;28;20646;-72
2023/06/22 03:52:57;;;;;;;96.27;60.07;;;;;;;18.88;100.00;100134.88;5097593;28;20214;-73
2023/06/22 03:55:22;;;;;;;79.23;52.67;;;;;;;18.96;100.00;100133.72;5091284;28;20224;-72
2023/06/22 03:57:47;;;;;;;70.03;50.93;;;;;;;19.07;100.00;100133.19;5083142;28;20208;-72
2023/06/22 04:00:15;;;;;;;125.53;77.70;;;;;;;18.92;100.00;100130.31;5087191;28;20223;-72
2023/06/22 04:02:41;;;;;;;100.93;71.83;;;;;;;18.70;100.00;100128.72;5087343;28;20208;-72
2023/06/22 04:05:08;;;;;;;101.93;71.97;;;;;;;18.77;100.00;100115.31;5095373;28;20285;-73
2023/06/22 04:07:34;;;;;;;121.83;76.20;;;;;;;18.80;100.00;100115.16;5085763;28;20193;-73
2023/06/22 04:09:59;;;;;;;117.20;72.63;;;;;;;18.71;100.00;100124.31;5087399;28;20628;-73
2023/06/22 04:12:24;;;;;;;113.67;73.53;;;;;;;18.74;100.00;100116.31;5085555;28;20209;-73
2023/06/22 04:14:49;;;;;;;103.77;72.20;;;;;;;18.87;100.00;100113.97;5088028;28;20180;-73
2023/06/22 04:17:15;;;;;;;100.00;69.93;;;;;;;19.08;100.00;100113.91;5079680;28;20626;-73
2023/06/22 04:19:40;;;;;;;112.90;76.07;;;;;;;19.34;100.00;100116.16;5082443;28;20310;-73
2023/06/22 04:22:07;;;;;;;100.83;67.73;;;;;;;19.42;100.00;100117.53;5084527;28;20211;-73
2023/06/22 04:24:33;;;;;;;83.37;60.17;;;;;;;19.54;100.00;100113.47;5087413;28;20275;-74
2023/06/22 04:27:00;;;;;;;90.73;64.97;;;;;;;19.63;100.00;100110.38;5083794;28;20555;-73
2023/06/22 04:29:28;;;;;;;107.97;68.73;;;;;;;19.53;100.00;100111.78;5081197;28;20177;-73
2023/06/22 04:31:55;;;;;;;98.97;63.77;;;;;;;19.36;100.00;100104.75;5097576;28;20203;-73
2023/06/22 04:34:21;;;;;;;70.60;53.23;;;;;;;19.46;100.00;100101.56;5084566;28;20952;-73
2023/06/22 04:36:46;;;;;;;81.03;55.17;;;;;;;19.69;100.00;100104.84;5081843;28;20188;-74
2023/06/22 04:39:12;;;;;;;69.93;51.33;;;;;;;19.83;100.00;100109.38;5082505;28;20223;-73
2023/06/22 04:41:44;;;;;;;72.50;52.67;;;;;;;19.96;100.00;100101.78;5099924;27;20235;-73
2023/06/22 04:44:25;;;;;;;88.10;60.63;;;;;;;20.05;100.00;100098.66;5083609;28;20212;-74
2023/06/22 04:46:59;;;;;;;78.57;56.03;;;;;;;20.21;100.00;100090.84;5078883;28;20245;-73
2023/06/22 04:49:32;;;;;;;89.07;62.40;;;;;;;20.17;100.00;100101.59;5078681;28;20587;-73
2023/06/22 04:52:02;;;;;;;77.30;54.97;;;;;;;20.10;100.00;100101.91;5102669;27;20239;-73
2023/06/22 04:54:28;;;;;;;87.63;60.97;;;;;;;20.02;100.00;100088.34;5081752;28;20946;-73
2023/06/22 04:56:56;;;;;;;94.27;60.73;;;;;;;20.24;100.00;100081.94;5080295;28;20177;-73
2023/06/22 04:59:28;;;;;;;92.03;60.57;;;;;;;20.20;100.00;100091.78;5085829;28;20196;-74
2023/06/22 05:01:58;;;;;;;97.10;59.77;;;;;;;20.41;100.00;100081.91;5080009;28;20698;-73
2023/06/22 05:04:24;;;;;;;107.17;62.20;;;;;;;20.83;100.00;100087.59;5085383;28;20209;-73
2023/06/22 05:06:51;;;;;;;115.10;64.83;;;;;;;20.50;100.00;100079.69;5092300;28;20237;-73
2023/06/22 05:09:17;;;;;;;85.37;54.33;;;;;;;20.71;100.00;100073.28;5083295;28;20637;-73
2023/06/22 05:11:43;;;;;;;93.80;59.17;;;;;;;20.43;100.00;100075.72;5096274;28;20213;-72
2023/06/22 05:14:08;;;;;;;102.03;59.43;;;;;;;20.32;100.00;100077.16;5078599;28;20186;-73
2023/06/22 05:16:33;;;;;;;87.07;53.87;;;;;;;20.32;100.00;100071.91;5084442;28;20227;-74
2023/06/22 05:18:59;;;;;;;78.80;50.33;;;;;;;20.88;100.00;100068.03;5078794;28;20234;-73
2023/06/22 05:21:26;;;;;;;77.33;48.33;;;;;;;20.70;100.00;100060.22;5076892;28;20217;-73
2023/06/22 05:23:53;;;;;;;72.30;42.73;;;;;;;20.79;100.00;100064.16;5064819;28;20225;-73
2023/06/22 05:26:19;;;;;;;54.13;37.53;;;;;;;21.19;100.00;100063.69;5076440;28;20740;-74
2023/06/22 05:28:45;;;;;;;64.83;41.07;;;;;;;20.82;100.00;100066.59;5078901;28;20189;-73
2023/06/22 05:31:13;;;;;;;60.23;37.17;;;;;;;20.49;100.00;100062.25;5085194;28;20193;-73
2023/06/22 05:33:38;;;;;;;60.90;37.77;;;;;;;20.44;100.00;100066.91;5089090;28;20625;-72
2023/06/22 05:36:04;;;;;;;58.63;37.33;;;;;;;20.40;100.00;100071.47;5089072;28;20181;-73
2023/06/22 05:38:29;;;;;;;53.50;34.03;;;;;;;20.69;100.00;100063.78;5079127;28;20653;-74
2023/06/22 05:40:54;;;;;;;38.90;27.80;;;;;;;20.94;100.00;100067.72;5088674;28;20192;-73
2023/06/22 05:43:20;;;;;;;47.93;30.57;;;;;;;20.50;100.00;100061.28;5094927;28;20218;-73
2023/06/22 05:45:45;;;;;;;49.07;32.00;;;;;;;20.54;100.00;100055.81;5084694;28;20261;-73
2023/06/22 05:48:10;;;;;;;46.80;28.10;;;;;;;20.91;100.00;100060.00;5078770;28;20197;-73
2023/06/22 05:50:37;;;;;;;37.17;25.13;;;;;;;21.24;100.00;100072.19;5087778;28;20613;-73
2023/06/22 05:53:02;;;;;;;26.07;19.60;;;;;;;21.78;100.00;100077.81;5089858;28;20215;-73
2023/06/22 05:55:27;;;;;;;20.83;17.60;;;;;;;22.14;100.00;100080.13;5092901;28;20579;-74
2023/06/22 05:57:53;;;;;;;22.60;16.73;;;;;;;21.23;100.00;100070.47;5099739;28;20721;-73
2023/06/22 06:00:18;;;;;;;18.87;16.83;;;;;;;21.42;100.00;100073.75;5076972;28;20659;-74
2023/06/22 06:02:44;;;;;;;21.87;16.53;;;;;;;21.39;100.00;100062.56;5080572;28;20205;-74
2023/06/22 06:05:13;;;;;;;19.60;16.70;;;;;;;21.29;100.00;100070.16;5077065;28;20759;-74
2023/06/22 06:07:39;;;;;;;15.90;14.07;;;;;;;21.57;100.00;100073.81;5086236;28;20185;-73
2023/06/22 06:10:06;;;;;;;17.33;12.77;;;;;;;21.55;100.00;100073.91;5086569;28;20210;-73
2023/06/22 06:12:31;;;;;;;14.13;12.67;;;;;;;21.48;100.00;100070.75;5088561;28;20732;-74
2023/06/22 06:14:56;;;;;;;13.87;12.53;;;;;;;21.70;100.00;100059.00;5090876;28;20177;-74
2023/06/22 06:17:22;;;;;;;14.20;12.37;;;;;;;21.97;100.00;100053.00;5085047;28;20550;-73
2023/06/22 06:19:47;;;;;;;12.67;11.43;;;;;;;22.26;100.00;100053.03;5093698;28;20187;-73
2023/06/22 06:22:12;;;;;;;12.83;11.53;;;;;;;22.29;100.00;100044.09;5101020;28;20698;-73
2023/06/22 06:24:38;;;;;;;14.03;10.67;;;;;;;22.57;100.00;100050.31;5087206;28;20687;-74
2023/06/22 06:27:04;;;;;;;11.27;9.93;;;;;;;22.91;100.00;100037.59;5087109;28;20652;-74
2023/06/22 06:29:30;;;;;;;11.30;10.17;;;;;;;23.18;100.00;100042.00;5088809;28;20686;-73
2023/06/22 06:31:56;;;;;;;10.37;9.10;;;;;;;23.33;100.00;100041.03;5097653;28;20281;-74
2023/06/22 06:34:22;;;;;;;10.47;9.13;;;;;;;23.41;100.00;100037.88;5085573;28;20182;-74
2023/06/22 06:36:47;;;;;;;10.40;8.80;;;;;;;23.87;100.00;100044.47;5077572;28;20250;-74
2023/06/22 06:39:12;;;;;;;9.60;8.73;;;;;;;23.93;100.00;100037.91;5086289;28;22996;-74
2023/06/22 06:41:38;;;;;;;9.00;8.20;;;;;;;23.98;100.00;100049.03;5098479;28;20204;-73
2023/06/22 06:44:03;;;;;;;9.98;8.80;;;;;;;24.44;100.00;100040.53;5084226;28;20304;-74
2023/06/22 06:46:29;;;;;;;10.30;8.77;;;;;;;24.85;100.00;100033.25;5084683;28;20198;-74
2023/06/22 06:48:54;;;;;;;9.00;8.20;;;;;;;25.02;100.00;100034.63;5082424;28;20201;-74
2023/06/22 06:51:19;;;;;;;9.20;8.32;;;;;;;24.68;100.00;100034.41;5088560;28;20573;-74
2023/06/22 06:53:45;;;;;;;11.52;8.23;;;;;;;24.70;100.00;100029.06;5088574;28;20746;-74
2023/06/22 06:56:10;;;;;;;8.87;8.07;;;;;;;24.98;100.00;100027.88;5112079;27;20180;-74
2023/06/22 06:58:36;;;;;;;12.23;8.80;;;;;;;25.00;100.00;100027.78;5092751;28;20297;-75
2023/06/22 07:01:02;;;;;;;8.93;8.13;;;;;;;25.13;100.00;100031.19;5083526;28;20691;-74
2023/06/22 07:03:28;;;;;;;10.13;8.50;;;;;;;25.27;100.00;100025.72;5086595;28;20672;-75
2023/06/22 07:05:53;;;;;;;10.10;8.07;;;;;;;25.50;100.00;100024.97;5080456;28;20192;-74
2023/06/22 07:08:19;;;;;;;8.63;7.75;;;;;;;25.77;100.00;100022.00;5094304;28;20740;-74
2023/06/22 07:10:44;;;;;;;9.50;7.88;;;;;;;25.75;100.00;100008.03;5093931;27;20168;-74
2023/06/22 07:13:09;;;;;;;8.25;7.32;;;;;;;25.81;100.00;100014.66;5101610;28;20204;-74
2023/06/22 07:15:35;;;;;;;7.72;7.00;;;;;;;26.06;100.00;100010.06;5099682;28;20192;-75
2023/06/22 07:18:00;;;;;;;9.18;7.25;;;;;;;26.26;100.00;100012.03;5100645;28;20185;-76
2023/06/22 07:20:25;;;;;;;7.88;7.05;;;;;;;26.28;100.00;100002.16;5095721;28;20272;-75
2023/06/22 07:22:51;;;;;;;7.15;6.50;;;;;;;26.00;100.00;99988.41;5096868;28;20250;-75
2023/06/22 07:25:17;;;;;;;7.50;6.80;;;;;;;26.35;100.00;100004.28;5086509;28;20205;-74
2023/06/22 07:27:47;;;;;;;6.70;5.97;;;;;;;26.84;100.00;100018.09;5089850;28;20189;-74
2023/06/22 07:30:13;;;;;;;7.60;6.60;;;;;;;27.12;100.00;100006.03;5099133;28;20216;-75
2023/06/22 07:32:38;;;;;;;6.80;6.07;;;;;;;27.67;100.00;99997.06;5096422;28;20235;-75
2023/06/22 07:35:04;;;;;;;6.20;5.60;;;;;;;27.41;100.00;99993.94;5096546;28;20185;-75
2023/06/22 07:37:30;;;;;;;7.28;6.57;;;;;;;27.62;100.00;99994.75;5087699;28;20181;-74
2023/06/22 07:39:58;;;;;;;7.88;6.68;;;;;;;27.59;100.00;99997.72;5094598;28;20197;-74
2023/06/22 07:42:28;;;;;;;7.95;6.28;;;;;;;27.64;97.10;100006.13;5090443;28;20689;-75
2023/06/22 07:44:54;;;;;;;6.35;5.75;;;;;;;27.83;100.00;100016.00;5082239;28;20204;-75
2023/06/22 07:47:20;;;;;;;7.50;6.60;;;;;;;28.07;98.00;100008.69;5093483;28;20189;-74
2023/06/22 07:49:48;;;;;;;7.55;6.22;;;;;;;28.49;98.22;100013.91;5091317;28;20181;-75
2023/06/22 07:52:13;;;;;;;6.97;6.28;;;;;;;27.95;92.34;100016.75;5092299;28;20284;-74
2023/06/22 07:54:39;;;;;;;7.88;6.18;;;;;;;28.14;96.71;100020.50;5093346;28;20333;-74
2023/06/22 07:57:04;;;;;;;7.00;6.32;;;;;;;28.09;95.94;100015.59;5088508;28;20847;-74
2023/06/22 07:59:30;;;;;;;8.63;6.47;;;;;;;28.13;96.28;100017.00;5081149;28;20186;-75
2023/06/22 08:01:55;;;;;;;7.32;6.50;;;;;;;28.35;96.59;100022.28;5086613;28;20204;-75
2023/06/22 08:04:20;;;;;;;6.43;5.93;;;;;;;28.41;93.94;100016.38;5104392;28;20211;-74
2023/06/22 08:06:46;;;;;;;8.43;6.20;;;;;;;28.78;93.81;100022.91;5088691;28;20196;-74
2023/06/22 08:09:12;;;;;;;7.15;6.53;;;;;;;28.69;93.42;100024.56;5095889;28;20691;-75
2023/06/22 08:11:37;;;;;;;7.85;6.32;;;;;;;28.78;93.69;100023.78;5085598;28;20213;-74
2023/06/22 08:14:03;;;;;;;7.82;6.72;;;;;;;28.80;91.23;100047.59;5087518;28;20185;-75
2023/06/22 08:16:28;;;;;;;7.20;5.63;;;;;;;28.89;92.57;100068.09;5083948;28;20727;-75
2023/06/22 08:18:54;;;;;;;6.57;5.97;;;;;;;29.16;91.97;100074.56;5086694;28;20182;-74
2023/06/22 08:21:20;;;;;;;8.73;6.35;;;;;;;29.08;90.72;100085.91;5077636;28;20186;-74
2023/06/22 08:23:45;;;;;;;7.35;6.20;;;;;;;29.64;89.94;100094.19;5081939;28;20205;-75
2023/06/22 08:26:10;;;;;;;6.22;5.63;;;;;;;29.99;88.02;100097.22;5068332;28;20662;-75
2023/06/22 08:28:36;;;;;;;8.73;5.40;;;;;;;30.36;86.70;100099.91;5074448;28;20193;-73
2023/06/22 08:31:03;;;;;;;5.60;5.10;;;;;;;30.73;86.10;100092.84;5083899;28;20192;-74
2023/06/22 08:33:30;;;;;;;6.22;5.63;;;;;;;30.22;85.34;100071.88;5079882;28;20194;-74
2023/06/22 08:35:56;;;;;;;7.00;5.80;;;;;;;30.96;81.15;100049.69;5071263;28;20185;-75
2023/06/22 08:38:21;;;;;;;6.15;5.57;;;;;;;31.26;82.92;100035.09;5077652;28;20192;-74
2023/06/22 08:40:46;;;;;;;6.43;5.63;;;;;;;31.69;80.61;100024.53;5083468;28;20189;-75
2023/06/22 08:43:12;;;;;;;6.10;5.60;;;;;;;31.96;80.27;100024.53;5083625;28;20262;-74
2023/06/22 08:45:37;;;;;;;6.22;5.53;;;;;;;32.34;79.06;100030.41;5094759;28;20176;-74
2023/06/22 08:48:03;;;;;;;7.03;6.32;;;;;;;31.37;80.38;100028.66;5086449;28;20199;-75
2023/06/22 08:50:28;;;;;;;10.80;6.53;;;;;;;30.53;80.35;100044.03;5085751;28;20224;-74
2023/06/22 08:52:53;;;;;;;6.45;5.22;;;;;;;31.60;79.42;100049.56;5070735;28;20209;-75
2023/06/22 08:55:19;;;;;;;6.05;5.45;;;;;;;32.00;76.74;100036.56;5073119;28;20347;-75
2023/06/22 08:57:44;;;;;;;8.02;5.85;;;;;;;31.05;79.73;100045.25;5073178;28;20197;-74
2023/06/22 09:00:17;;;;;;;8.38;6.35;;;;;;;31.15;82.10;100035.34;5077828;28;20181;-74
2023/06/22 09:02:43;;;;;;;6.80;6.07;;;;;;;31.71;76.95;100041.28;5090713;28;20240;-75
2023/06/22 09:05:09;;;;;;;8.43;6.47;;;;;;;31.73;78.05;100039.31;5083070;28;20221;-75
2023/06/22 09:07:34;;;;;;;7.00;6.28;;;;;;;31.84;80.71;100035.50;5092415;28;20224;-73
2023/06/22 09:09:59;;;;;;;6.30;5.70;;;;;;;32.04;80.75;100027.25;5083777;28;20688;-75
2023/06/22 09:12:27;;;;;;;6.88;6.00;;;;;;;32.10;81.01;100036.47;5081636;28;20201;-74
2023/06/22 09:14:53;;;;;;;8.00;6.18;;;;;;;32.17;79.25;100034.84;5074739;28;20247;-75
2023/06/22 09:17:18;;;;;;;6.88;6.18;;;;;;;32.11;82.07;100041.66;5081866;28;20181;-74
2023/06/22 09:19:44;;;;;;;6.78;6.18;;;;;;;31.93;82.69;100036.38;5080188;28;20236;-74
2023/06/22 09:22:09;;;;;;;6.20;5.70;;;;;;;31.83;82.91;100031.16;5082595;28;20437;-75
2023/06/22 09:24:34;;;;;;;7.55;6.03;;;;;;;31.60;82.89;100015.63;5075086;28;20768;-74
2023/06/22 09:27:00;;;;;;;8.43;6.50;;;;;;;31.12;81.26;100006.22;5093337;28;20265;-75
2023/06/22 09:29:25;;;;;;;7.32;6.32;;;;;;;31.19;82.47;99995.78;5084278;28;20268;-75
2023/06/22 09:31:53;;;;;;;7.03;6.30;;;;;;;31.29;84.09;99994.69;5076410;28;20204;-75
2023/06/22 09:34:20;;;;;;;6.13;5.63;;;;;;;31.43;83.94;99982.59;5085532;28;20166;-75
2023/06/22 09:36:48;;;;;;;6.75;5.93;;;;;;;31.72;82.17;99970.75;5095209;28;20553;-74
2023/06/22 09:39:14;;;;;;;7.68;6.97;;;;;;;32.00;81.46;99965.19;5082447;28;20206;-75
2023/06/22 09:41:39;;;;;;;6.45;5.95;;;;;;;32.30;81.62;99956.75;5088866;28;20212;-74
2023/06/22 09:44:04;;;;;;;7.80;6.32;;;;;;;32.69;79.13;99948.13;5086209;28;20193;-75
2023/06/22 09:46:30;;;;;;;8.82;6.18;;;;;;;32.93;75.91;99959.84;5083003;28;20622;-75
2023/06/22 09:48:55;;;;;;;8.20;6.55;;;;;;;32.62;76.14;99936.38;5082137;28;20685;-75
2023/06/22 09:51:21;;;;;;;12.25;6.60;;;;;;;32.23;75.92;99925.25;5081999;28;20692;-75
2023/06/22 09:53:47;;;;;;;7.88;6.57;;;;;;;31.08;77.60;99925.53;5099007;28;20197;-75
2023/06/22 09:56:14;;;;;;;7.90;7.10;;;;;;;31.28;78.67;99936.03;5106133;28;20219;-75
2023/06/22 09:58:41;;;;;;;7.88;6.70;;;;;;;31.53;77.65;99939.69;5092222;28;20184;-75
2023/06/22 10:01:06;;;;;;;7.93;6.63;;;;;;;31.58;79.81;99944.56;5087117;28;20189;-75
2023/06/22 10:03:32;;;;;;;7.05;6.22;;;;;;;31.83;80.75;99952.72;5088538;28;20200;-75
2023/06/22 10:05:57;;;;;;;6.15;5.65;;;;;;;32.01;81.93;99961.50;5082552;28;20208;-74
2023/06/22 10:08:23;;;;;;;7.15;6.45;;;;;;;32.30;78.60;99946.03;5091233;28;20668;-75
2023/06/22 10:10:48;;;;;;;6.60;6.05;;;;;;;32.26;77.79;99950.88;5101438;28;20263;-75
2023/06/22 10:13:14;;;;;;;6.63;6.10;;;;;;;32.32;77.36;99952.06;5101052;28;20222;-75
2023/06/22 10:15:40;;;;;;;6.50;5.90;;;;;;;32.43;78.60;99940.22;5081674;28;20250;-75
2023/06/22 10:18:06;;;;;;;7.20;6.60;;;;;;;32.42;78.20;99944.75;5090021;28;20688;-75
2023/06/22 10:20:31;;;;;;;7.18;6.47;;;;;;;32.46;77.97;99934.53;5093536;28;20181;-75
2023/06/22 10:22:56;;;;;;;7.53;6.60;;;;;;;32.52;77.54;99936.56;5084518;28;20270;-76
2023/06/22 10:25:22;;;;;;;8.48;6.45;;;;;;;32.37;79.16;99934.50;5091652;28;20204;-76
2023/06/22 10:27:47;;;;;;;7.97;7.18;;;;;;;31.97;79.34;99941.41;5090438;28;20243;-76
2023/06/22 10:30:13;;;;;;;7.75;6.40;;;;;;;31.83;81.55;99942.03;5085615;28;20189;-75
2023/06/22 10:32:39;;;;;;;7.03;6.32;;;;;;;32.02;81.95;99935.56;5087631;28;20293;-76
2023/06/22 10:35:05;;;;;;;7.43;6.72;;;;;;;32.06;82.16;99929.75;5098538;28;20550;-77
2023/06/22 10:37:30;;;;;;;9.40;7.13;;;;;;;31.72;82.49;99925.28;5087054;28;20208;-76
2023/06/22 10:39:56;;;;;;;7.32;6.63;;;;;;;32.00;82.39;99918.81;5072743;28;20185;-76
2023/06/22 10:42:21;;;;;;;8.30;7.50;;;;;;;31.50;81.67;99923.13;5084606;28;20211;-76
2023/06/22 10:44:46;;;;;;;8.82;7.03;;;;;;;31.48;83.25;99916.09;5089112;28;20194;-77
2023/06/22 10:47:12;;;;;;;7.25;6.30;;;;;;;31.39;83.60;99917.06;5080053;28;20193;-76
2023/06/22 10:49:38;;;;;;;8.00;6.88;;;;;;;31.44;82.16;99921.91;5092019;28;20198;-75
2023/06/22 10:52:04;;;;;;;8.00;7.20;;;;;;;31.65;81.35;99923.38;5075997;28;20255;-76
2023/06/22 10:54:30;;;;;;;11.27;7.13;;;;;;;31.07;80.76;99925.69;5086714;28;20787;-76
2023/06/22 10:56:55;;;;;;;8.82;6.88;;;;;;;31.39;81.43;99916.19;5093616;28;20241;-76
2023/06/22 10:59:23;;;;;;;7.85;7.25;;;;;;;31.57;81.27;99916.16;5084847;28;20189;-77
2023/06/22 11:01:48;;;;;;;8.52;6.80;;;;;;;31.59;80.23;99924.84;5104338;28;20268;-77
2023/06/22 11:04:14;;;;;;;7.43;6.72;;;;;;;31.69;80.62;99925.56;5097509;28;20667;-76
2023/06/22 11:06:39;;;;;;;7.35;6.68;;;;;;;32.06;80.12;99923.53;5096831;28;20951;-77
2023/06/22 11:09:04;;;;;;;10.70;7.70;;;;;;;32.01;77.93;99918.69;5086084;28;20206;-77